Terminal Aerodrome Forecast
Issued by NWS Duluth, MN

Home | Current Version | Previous Version | Text Only | Print | Product List | Glossary On
Versions: 1 2 3 4 5 6 7 8 9 10 11 12 13 14 15 16 17 18 19 20 21 22 23 24 25 26 27 28
692
FTUS43 KDLH 140527
TAFDLH
TAF
KDLH 140527Z 1406/1506 28006KT P6SM SCT250
     FM141600 19010KT 4SM -SN OVC025
     FM141800 20010KT 1SM -SN OVC015
     FM142300 21006KT 4SM -SN BKN013
     FM150400 31005KT P6SM BKN023=

USA.gov is the U.S. government's official web portal to all federal, state and local government web resources and services.